Main page
METAR-TAF:

METAR-TAF

Airports :

Guernsey Airport

Guernsey,

latitude: 49-26N, longitude: 002-36W, elevation: 102 m

Current weather observation

The report was made 22 minutes ago, at 06:50 UTC
Wind 12 kt from the Northwest
Temperature 7°C
Humidity 70%
Pressure 1025 hPa
Visibility 10 km or more
Few clouds at a height of 2500 ft

METAR: EGJB 170650Z 32012KT 9999 FEW025 07/02 Q1025

Time: 07:12 (07:12 UTC)

Forecast

The report was made 2 hours and 16 minutes ago, at 04:56 UTC
Forecast valid from 17 at 06 UTC to 17 at 15 UTC
Wind 12 kt from the North/Northwest
Visibility 10 km or more
Few clouds at a height of 1800 ft
Scattered clouds at a height of 4000 ft
Temporary
from 17 at 06 UTC to 17 at 09 UTC
Wind 15 kt from the North/Northwest with gusts up to 25 kt

TAF: EGJB 170456Z 1706/1715 33012KT 9999 FEW018 SCT040 TEMPO 1706/1709 33015G25KT

Weather observations and forecasts of more than 4000 airports (METAR and TAF reports).

The available stations are represented by yellow and red dots on the map.

Hover mouse over dot to see the name of the station.

Then click to see weather observations and forecasts.

To change the map : click on the green buttons with a black cross to zoom in, on the green button with a dash to zoom out, or on the green arrows for adjacent maps.


METAR-TAF: